Terminal Aerodrome Forecast
Issued by NWS Shreveport, LA

Home | Current Version | Previous Version | Text Only | Print | Product List | Glossary On
Versions: 1 2 3 4 5 6 7 8 9 10 11 12 13 14 15 16 17 18 19 20 21 22 23
000
FTUS44 KSHV 221720
TAFSHV
TAF
KSHV 221720Z 2218/2318 09007KT P6SM FEW040 BKN150
     FM222000 10007KT P6SM SCT030 BKN150 BKN250
     FM230600 10005KT P6SM OVC050
     FM231200 12004KT P6SM OVC025
     FM231400 17007KT P6SM BKN040=

USA.gov is the U.S. government's official web portal to all federal, state and local government web resources and services.